createdAt,value
2017-12-27T00:01:13.080Z,-0.30
2017-12-27T00:05:51.957Z,-0.50
2017-12-27T00:10:29.093Z,-0.50
2017-12-27T00:15:06.577Z,-0.60
2017-12-27T00:19:50.232Z,-0.80
2017-12-27T00:24:27.535Z,-0.60
2017-12-27T00:29:09.270Z,-0.30
2017-12-27T00:31:41.792Z,-0.50
2017-12-27T00:34:12.182Z,-0.60
2017-12-27T00:36:43.555Z,-0.70
2017-12-27T00:39:14.388Z,-0.70
2017-12-27T00:41:45.060Z,-0.70
2017-12-27T00:44:15.854Z,-0.70
2017-12-27T00:46:46.659Z,-0.90
2017-12-27T00:49:17.018Z,-1.00
2017-12-27T00:51:47.290Z,-1.00
2017-12-27T00:54:20.478Z,-0.70
2017-12-27T00:56:51.559Z,-0.70
2017-12-27T00:59:22.189Z,-0.60
2017-12-27T01:01:53.552Z,-0.50
2017-12-27T01:04:24.480Z,-0.50
2017-12-27T01:06:55.636Z,-0.70
2017-12-27T01:09:26.308Z,-0.70
2017-12-27T01:11:56.960Z,-1.10
2017-12-27T01:14:28.268Z,-1.10
2017-12-27T01:16:58.572Z,-1.10
2017-12-27T01:19:29.132Z,-0.90
2017-12-27T01:21:59.716Z,-0.80
2017-12-27T01:24:31.014Z,-0.90
2017-12-27T01:27:01.370Z,-0.90
2017-12-27T01:29:32.966Z,-0.60
2017-12-27T01:32:03.577Z,-0.60
2017-12-27T01:34:33.956Z,-0.70
2017-12-27T01:37:04.424Z,-0.70
2017-12-27T01:39:35.277Z,-0.80
2017-12-27T01:42:05.925Z,-1.00
2017-12-27T01:44:36.710Z,-0.90
2017-12-27T01:47:13.275Z,-1.00
2017-12-27T01:49:44.804Z,-1.00
2017-12-27T01:52:15.352Z,-1.00
2017-12-27T01:54:47.329Z,-1.10
2017-12-27T01:57:18.258Z,-1.10
2017-12-27T01:59:49.157Z,-1.10
2017-12-27T02:02:19.834Z,-1.10
2017-12-27T02:04:50.505Z,-0.80
2017-12-27T02:07:21.324Z,-0.60
2017-12-27T02:09:52.418Z,-0.40
2017-12-27T02:12:22.755Z,-0.40
2017-12-27T02:14:53.698Z,-0.40
2017-12-27T02:17:24.813Z,-0.50
2017-12-27T02:19:55.713Z,-0.60
2017-12-27T02:22:26.140Z,-0.60
2017-12-27T02:24:57.179Z,-0.60
2017-12-27T02:27:29.453Z,-0.80
2017-12-27T02:30:00.752Z,-0.50
2017-12-27T02:32:31.555Z,-0.50
2017-12-27T02:35:02.706Z,-0.60
2017-12-27T02:37:33.282Z,-0.70
2017-12-27T02:40:13.194Z,-0.80
2017-12-27T02:42:44.930Z,-0.90
2017-12-27T02:45:15.784Z,-0.90
2017-12-27T02:47:47.949Z,-0.80
2017-12-27T02:50:18.441Z,-0.80
2017-12-27T02:52:49.302Z,-0.70
2017-12-27T02:55:19.592Z,-0.70
2017-12-27T02:57:50.704Z,-0.60
2017-12-27T03:00:21.384Z,-0.70
2017-12-27T03:02:51.881Z,-0.70
2017-12-27T03:05:23.345Z,-0.60
2017-12-27T03:07:54.461Z,-0.60
2017-12-27T03:10:29.157Z,-0.40
2017-12-27T03:12:59.503Z,-0.10
2017-12-27T03:15:30.706Z,0.10
2017-12-27T03:18:01.714Z,0.00
2017-12-27T03:20:32.477Z,-0.10
2017-12-27T03:23:03.434Z,-0.10
2017-12-27T03:25:35.806Z,0.00
2017-12-27T03:28:06.653Z,-0.10
2017-12-27T03:30:38.108Z,0.10
2017-12-27T03:33:09.268Z,-0.10
2017-12-27T03:35:39.678Z,-0.10
2017-12-27T03:38:14.545Z,-0.20
2017-12-27T03:40:45.562Z,-0.40
2017-12-27T03:43:17.247Z,-0.50
2017-12-27T03:45:48.444Z,-0.60
2017-12-27T03:48:19.060Z,-0.60
2017-12-27T03:50:50.214Z,-0.60
2017-12-27T03:53:24.483Z,-0.70
2017-12-27T03:55:55.435Z,-0.70
2017-12-27T03:58:26.371Z,-0.70
2017-12-27T04:00:57.117Z,-0.70
2017-12-27T04:03:27.944Z,-0.70
2017-12-27T04:05:58.960Z,-0.70
2017-12-27T04:08:29.916Z,-0.60
2017-12-27T04:11:01.833Z,-0.60
2017-12-27T04:13:34.225Z,-0.60
2017-12-27T04:16:05.630Z,-0.90
2017-12-27T04:18:36.342Z,-0.90
2017-12-27T04:21:07.099Z,-0.90
2017-12-27T04:23:37.730Z,-0.80
2017-12-27T04:26:09.676Z,-0.80
2017-12-27T04:28:42.084Z,-0.80
2017-12-27T04:31:12.865Z,-0.80
2017-12-27T04:33:43.446Z,-0.70
2017-12-27T04:36:14.125Z,-0.80
2017-12-27T04:38:45.459Z,-1.00
2017-12-27T04:41:16.163Z,-1.00
2017-12-27T04:43:46.760Z,-1.10
2017-12-27T04:46:17.928Z,-1.10
2017-12-27T04:48:48.786Z,-1.10
2017-12-27T04:51:19.600Z,-1.30
2017-12-27T04:53:50.811Z,-1.20
2017-12-27T04:56:22.024Z,-1.30
2017-12-27T04:58:54.354Z,-1.30
2017-12-27T05:01:25.053Z,-1.30
2017-12-27T05:03:55.743Z,-1.20
2017-12-27T05:06:29.038Z,-1.20
2017-12-27T05:08:59.686Z,-1.10
2017-12-27T05:11:31.489Z,-1.00
2017-12-27T05:14:02.216Z,-1.00
2017-12-27T05:16:32.595Z,-0.90
2017-12-27T05:19:03.484Z,-0.90
2017-12-27T05:21:33.810Z,-0.90
2017-12-27T05:24:04.337Z,-1.00
2017-12-27T05:26:36.202Z,-1.00
2017-12-27T05:29:08.387Z,-1.00
2017-12-27T05:31:39.017Z,-1.10
2017-12-27T05:34:09.730Z,-1.30
2017-12-27T05:36:40.362Z,-1.30
2017-12-27T05:39:10.732Z,-1.30
2017-12-27T05:41:41.210Z,-1.40
2017-12-27T05:44:11.563Z,-1.40
2017-12-27T05:46:42.234Z,-1.40
2017-12-27T05:49:12.950Z,-1.40
2017-12-27T05:51:43.534Z,-1.30
2017-12-27T05:54:14.281Z,-1.20
2017-12-27T05:56:46.377Z,-1.20
2017-12-27T05:59:16.723Z,-1.20
2017-12-27T06:01:50.576Z,-1.20
2017-12-27T06:04:24.319Z,-1.30
2017-12-27T06:06:55.682Z,-1.10
2017-12-27T06:09:28.368Z,-1.40
2017-12-27T06:11:58.997Z,-1.50
2017-12-27T06:14:31.382Z,-1.20
2017-12-27T06:17:01.824Z,-1.20
2017-12-27T06:19:33.908Z,-1.00
2017-12-27T06:22:04.847Z,-1.10
2017-12-27T06:24:35.225Z,-1.00
2017-12-27T06:27:14.897Z,-0.80
2017-12-27T06:29:46.587Z,-0.70
2017-12-27T06:32:17.366Z,-0.80
2017-12-27T06:34:48.527Z,-1.00
2017-12-27T06:37:20.023Z,-1.00
2017-12-27T06:39:51.358Z,-0.90
2017-12-27T06:42:22.476Z,-0.90
2017-12-27T06:44:53.860Z,-0.90
2017-12-27T06:47:24.455Z,-0.90
2017-12-27T06:49:54.935Z,-1.00
2017-12-27T06:52:28.901Z,-1.00
2017-12-27T06:55:01.792Z,-1.00
2017-12-27T06:57:32.687Z,-1.00
2017-12-27T07:00:04.293Z,-0.80
2017-12-27T07:02:39.534Z,-0.90
2017-12-27T07:05:10.900Z,-0.70
2017-12-27T07:07:41.805Z,-0.80
2017-12-27T07:10:12.421Z,-0.60
2017-12-27T07:12:42.985Z,-0.50
2017-12-27T07:15:15.007Z,-0.40
2017-12-27T07:17:45.840Z,-0.40
2017-12-27T07:20:17.239Z,-0.40
2017-12-27T07:26:23.430Z,-0.40
2017-12-27T07:28:54.407Z,-0.50
2017-12-27T07:31:28.140Z,-0.50
2017-12-27T07:34:02.127Z,-0.30
2017-12-27T07:36:55.279Z,-0.30
2017-12-27T07:39:30.067Z,-0.50
2017-12-27T07:42:02.691Z,-0.60
2017-12-27T07:44:34.060Z,-0.40
2017-12-27T07:47:05.125Z,-0.40
2017-12-27T07:49:36.975Z,-0.30
2017-12-27T07:52:09.046Z,-0.30
2017-12-27T07:54:41.111Z,-0.30
2017-12-27T07:57:49.645Z,-0.30
2017-12-27T08:00:20.152Z,-0.10
2017-12-27T08:02:52.339Z,0.00
2017-12-27T08:05:22.984Z,0.00
2017-12-27T08:07:53.751Z,0.00
2017-12-27T08:10:24.294Z,0.00
2017-12-27T08:12:54.990Z,0.00
2017-12-27T08:15:25.950Z,0.10
2017-12-27T08:18:04.148Z,0.10
2017-12-27T08:20:36.919Z,0.20
2017-12-27T08:23:08.348Z,0.40
2017-12-27T08:25:42.212Z,0.40
2017-12-27T08:28:13.794Z,0.20
2017-12-27T08:30:45.928Z,0.20
2017-12-27T08:33:18.791Z,0.20
2017-12-27T08:36:01.796Z,0.10
2017-12-27T08:38:34.639Z,0.20
2017-12-27T08:41:05.489Z,0.20
2017-12-27T08:43:36.290Z,0.30
2017-12-27T08:46:07.262Z,0.40
2017-12-27T08:48:38.065Z,0.50
2017-12-27T08:51:08.657Z,0.60
2017-12-27T08:53:41.574Z,0.60
2017-12-27T08:56:12.962Z,0.60
2017-12-27T08:58:47.976Z,0.40
2017-12-27T09:01:19.714Z,0.40
2017-12-27T09:03:53.174Z,0.60
2017-12-27T09:06:25.754Z,0.60
2017-12-27T09:08:58.080Z,0.60
2017-12-27T09:11:29.127Z,0.60
2017-12-27T09:14:00.063Z,0.80
2017-12-27T09:16:33.436Z,0.70
2017-12-27T09:19:04.785Z,0.70
2017-12-27T09:21:38.060Z,0.90
2017-12-27T09:24:08.948Z,0.90
2017-12-27T09:26:39.620Z,1.00
2017-12-27T09:29:37.544Z,0.90
2017-12-27T09:32:12.343Z,0.90
2017-12-27T09:34:48.035Z,0.90
2017-12-27T09:37:24.262Z,0.90
2017-12-27T09:43:32.322Z,0.70
2017-12-27T09:46:04.429Z,1.10
2017-12-27T09:48:34.880Z,1.10
2017-12-27T09:51:05.418Z,1.10
2017-12-27T09:53:54.064Z,1.20
2017-12-27T09:56:25.510Z,1.50
2017-12-27T09:58:56.258Z,1.50
2017-12-27T10:01:27.286Z,1.70
2017-12-27T10:03:58.736Z,1.80
2017-12-27T10:06:29.969Z,2.00
2017-12-27T10:09:01.685Z,2.10
2017-12-27T10:11:33.259Z,1.90
2017-12-27T10:14:05.655Z,2.20
2017-12-27T10:16:36.622Z,2.10
2017-12-27T10:19:07.199Z,2.20
2017-12-27T10:24:54.655Z,2.90
2017-12-27T10:27:27.119Z,3.20
2017-12-27T10:29:58.875Z,3.60
2017-12-27T10:32:34.319Z,3.80
2017-12-27T10:35:07.346Z,3.90
2017-12-27T10:37:43.938Z,3.60
2017-12-27T10:43:24.712Z,3.80
2017-12-27T10:45:55.717Z,3.90
2017-12-27T10:48:29.737Z,3.80
2017-12-27T10:51:04.903Z,3.40
2017-12-27T10:53:37.048Z,3.40
2017-12-27T10:56:20.584Z,3.30
2017-12-27T10:59:02.523Z,3.50
2017-12-27T11:01:55.400Z,3.70
2017-12-27T11:04:28.917Z,3.80
2017-12-27T11:07:00.882Z,3.90
2017-12-27T11:09:34.073Z,4.00
2017-12-27T11:12:07.293Z,4.10
2017-12-27T11:14:48.628Z,4.20
2017-12-27T11:17:19.964Z,4.30
2017-12-27T11:19:50.484Z,4.80
2017-12-27T11:22:21.832Z,5.00
2017-12-27T11:24:52.652Z,5.00
2017-12-27T11:27:24.934Z,5.20
2017-12-27T11:29:55.940Z,5.20
2017-12-27T11:32:28.518Z,5.40
2017-12-27T11:34:59.597Z,5.30
2017-12-27T11:37:30.569Z,5.40
2017-12-27T11:40:02.634Z,5.10
2017-12-27T11:49:44.242Z,4.50
2017-12-27T11:52:37.919Z,4.50
2017-12-27T11:55:17.557Z,4.70
2017-12-27T11:58:51.904Z,5.50
2017-12-27T12:01:23.796Z,6.80
2017-12-27T12:03:54.231Z,6.80
2017-12-27T12:06:24.723Z,8.20
2017-12-27T12:08:55.473Z,9.30
2017-12-27T12:11:26.470Z,10.30
2017-12-27T12:13:57.251Z,10.90
2017-12-27T12:16:29.655Z,11.80
2017-12-27T12:19:00.213Z,11.80
2017-12-27T12:21:31.490Z,11.90
2017-12-27T12:24:04.283Z,12.30
2017-12-27T12:26:35.674Z,11.80
2017-12-27T12:29:06.813Z,11.80
2017-12-27T12:31:37.943Z,11.80
2017-12-27T12:34:09.481Z,11.40
2017-12-27T12:36:42.030Z,9.60
2017-12-27T12:46:36.111Z,8.00
2017-12-27T12:49:07.877Z,8.00
2017-12-27T12:52:04.482Z,8.00
2017-12-27T12:54:40.657Z,7.80
2017-12-27T12:57:12.221Z,7.80
2017-12-27T12:59:51.881Z,7.80
2017-12-27T13:02:23.762Z,8.00
2017-12-27T13:04:54.883Z,8.00
2017-12-27T13:07:26.190Z,8.10
2017-12-27T13:09:58.573Z,8.00
2017-12-27T13:12:32.022Z,7.20
2017-12-27T13:15:05.931Z,6.90
2017-12-27T13:17:51.653Z,6.90
2017-12-27T13:20:28.375Z,7.00
2017-12-27T13:22:59.799Z,7.00
2017-12-27T13:25:31.123Z,7.00
2017-12-27T13:28:06.129Z,6.80
2017-12-27T13:30:38.962Z,6.80
2017-12-27T13:33:11.064Z,6.50
2017-12-27T13:35:48.166Z,6.50
2017-12-27T13:39:48.138Z,6.30
2017-12-27T13:42:19.286Z,6.20
2017-12-27T13:44:50.364Z,6.00
2017-12-27T13:47:21.414Z,5.70
2017-12-27T13:49:53.738Z,5.90
2017-12-27T13:53:28.571Z,5.80
2017-12-27T13:56:02.483Z,5.90
2017-12-27T13:58:33.956Z,5.90
2017-12-27T14:01:56.431Z,5.80
2017-12-27T14:04:28.299Z,5.70
2017-12-27T14:07:01.437Z,5.70
2017-12-27T14:11:43.578Z,5.70
2017-12-27T14:14:23.192Z,5.90
2017-12-27T14:20:34.334Z,5.90
2017-12-27T14:23:05.256Z,5.60
2017-12-27T14:25:36.735Z,5.60
2017-12-27T14:28:07.949Z,5.60
2017-12-27T14:30:39.071Z,5.40
2017-12-27T14:33:09.913Z,5.40
2017-12-27T14:39:18.082Z,5.00
2017-12-27T14:41:49.277Z,4.90
2017-12-27T14:44:19.902Z,4.90
2017-12-27T14:46:51.744Z,4.80
2017-12-27T14:49:22.836Z,4.60
2017-12-27T14:52:08.917Z,4.70
2017-12-27T14:54:41.673Z,4.40
2017-12-27T14:57:13.602Z,4.40
2017-12-27T14:59:45.684Z,4.20
2017-12-27T15:02:17.982Z,4.20
2017-12-27T15:04:57.575Z,4.30
2017-12-27T15:11:05.046Z,3.90
2017-12-27T15:13:39.356Z,3.80
2017-12-27T15:16:13.129Z,3.80
2017-12-27T15:18:44.912Z,3.60
2017-12-27T15:21:16.741Z,3.50
2017-12-27T15:23:49.710Z,3.40
2017-12-27T15:26:23.301Z,3.40
2017-12-27T15:33:57.628Z,3.30
2017-12-27T15:36:29.456Z,3.30
2017-12-27T15:39:02.593Z,3.20
2017-12-27T15:41:34.125Z,3.10
2017-12-27T15:44:05.099Z,3.30
2017-12-27T15:46:42.984Z,3.30
2017-12-27T15:49:15.133Z,3.30
2017-12-27T15:51:46.935Z,3.20
2017-12-27T15:54:19.916Z,3.00
2017-12-27T15:57:10.105Z,3.00
2017-12-27T15:59:50.874Z,2.90
2017-12-27T16:02:29.597Z,3.00
2017-12-27T16:05:18.961Z,2.90
2017-12-27T16:07:52.121Z,2.90
2017-12-27T16:10:23.315Z,2.80
2017-12-27T16:16:23.475Z,2.70
2017-12-27T16:18:55.728Z,2.50
2017-12-27T16:21:35.366Z,2.50
2017-12-27T16:24:11.438Z,2.40
2017-12-27T16:26:43.555Z,2.40
2017-12-27T16:29:23.940Z,2.40
2017-12-27T16:31:56.050Z,2.50
2017-12-27T16:34:28.243Z,2.50
2017-12-27T16:37:01.541Z,2.30
2017-12-27T16:39:38.254Z,2.20
2017-12-27T16:45:47.706Z,2.10
2017-12-27T16:48:20.759Z,2.00
2017-12-27T16:50:53.648Z,2.10
2017-12-27T16:53:25.196Z,2.10
2017-12-27T16:55:57.837Z,2.00
2017-12-27T17:02:06.379Z,2.00
2017-12-27T17:07:54.582Z,2.00
2017-12-27T17:10:25.766Z,2.10
2017-12-27T17:12:58.793Z,2.30
2017-12-27T17:15:30.940Z,2.30
2017-12-27T17:18:02.439Z,2.30
2017-12-27T17:20:33.686Z,2.30
2017-12-27T17:23:05.185Z,2.20
2017-12-27T17:25:37.102Z,2.30
2017-12-27T17:28:08.338Z,2.20
2017-12-27T17:30:39.695Z,2.20
2017-12-27T17:33:11.387Z,2.30
2017-12-27T17:35:45.130Z,2.30
2017-12-27T17:38:16.589Z,2.30
2017-12-27T17:40:47.394Z,2.30
2017-12-27T17:43:19.073Z,2.40
2017-12-27T17:45:52.368Z,2.20
2017-12-27T17:48:26.850Z,2.00
2017-12-27T17:51:02.857Z,1.90
2017-12-27T17:53:36.542Z,1.90
2017-12-27T17:56:09.039Z,1.80
2017-12-27T17:58:47.070Z,1.70
2017-12-27T18:01:18.612Z,1.70
2017-12-27T18:03:50.660Z,1.50
2017-12-27T18:06:22.461Z,1.50
2017-12-27T18:08:53.484Z,1.50
2017-12-27T18:11:24.564Z,1.60
2017-12-27T18:13:55.782Z,1.70
2017-12-27T18:16:27.577Z,1.80
2017-12-27T18:18:59.972Z,1.70
2017-12-27T18:21:32.541Z,1.70
2017-12-27T18:24:03.102Z,1.90
2017-12-27T18:26:34.176Z,1.90
2017-12-27T18:29:05.783Z,1.80
2017-12-27T18:31:37.985Z,1.60
2017-12-27T18:34:08.916Z,1.60
2017-12-27T18:36:41.202Z,1.60
2017-12-27T18:39:18.140Z,1.90
2017-12-27T18:41:51.777Z,1.90
2017-12-27T18:44:23.845Z,1.90
2017-12-27T18:46:55.101Z,1.90
2017-12-27T18:49:26.716Z,1.80
2017-12-27T18:51:58.364Z,1.80
2017-12-27T18:54:30.937Z,1.90
2017-12-27T18:57:04.127Z,1.80
2017-12-27T18:59:35.296Z,1.80
2017-12-27T19:02:06.847Z,1.90
2017-12-27T19:04:39.143Z,1.90
2017-12-27T19:07:10.142Z,1.70
2017-12-27T19:09:41.971Z,1.70
2017-12-27T19:12:15.178Z,1.30
2017-12-27T19:14:46.196Z,1.30
2017-12-27T19:17:17.612Z,1.30
2017-12-27T19:19:49.751Z,1.30
2017-12-27T19:22:20.904Z,1.40
2017-12-27T19:24:53.797Z,1.30
2017-12-27T19:27:25.598Z,1.30
2017-12-27T19:29:56.723Z,1.40
2017-12-27T19:32:29.906Z,1.50
2017-12-27T19:35:04.021Z,1.40
2017-12-27T19:37:35.156Z,1.50
2017-12-27T19:40:05.973Z,1.60
2017-12-27T19:42:40.654Z,1.30
2017-12-27T19:45:13.734Z,1.30
2017-12-27T19:47:46.446Z,1.30
2017-12-27T19:50:17.368Z,1.20
2017-12-27T19:52:48.049Z,1.30
2017-12-27T19:55:20.962Z,1.50
2017-12-27T19:57:52.412Z,1.50
2017-12-27T20:00:24.168Z,1.40
2017-12-27T20:02:55.534Z,1.50
2017-12-27T20:05:26.678Z,1.60
2017-12-27T20:07:57.822Z,1.60
2017-12-27T20:10:28.428Z,1.50
2017-12-27T20:13:00.234Z,1.40
2017-12-27T20:15:33.137Z,1.30
2017-12-27T20:18:06.538Z,1.00
2017-12-27T20:20:39.846Z,1.10
2017-12-27T20:23:11.639Z,1.00
2017-12-27T20:25:42.691Z,1.20
2017-12-27T20:28:16.082Z,1.30
2017-12-27T20:30:47.655Z,1.20
2017-12-27T20:33:22.109Z,1.30
2017-12-27T20:35:53.455Z,1.30
2017-12-27T20:38:24.256Z,1.20
2017-12-27T20:40:55.379Z,1.00
2017-12-27T20:43:28.632Z,1.10
2017-12-27T20:45:59.499Z,1.00
2017-12-27T20:48:31.380Z,1.10
2017-12-27T20:51:04.439Z,1.10
2017-12-27T20:53:37.336Z,1.00
2017-12-27T20:56:08.329Z,1.00
2017-12-27T20:58:42.061Z,1.00
2017-12-27T21:01:14.434Z,1.00
2017-12-27T21:03:46.329Z,1.00
2017-12-27T21:06:18.016Z,1.00
2017-12-27T21:08:50.202Z,0.80
2017-12-27T21:11:21.222Z,0.90
2017-12-27T21:13:54.658Z,0.90
2017-12-27T21:16:25.849Z,0.80
2017-12-27T21:18:58.243Z,0.90
2017-12-27T21:21:30.651Z,0.80
2017-12-27T21:24:02.681Z,0.80
2017-12-27T21:26:35.049Z,0.90
2017-12-27T21:29:06.898Z,1.00
2017-12-27T21:31:39.365Z,0.90
2017-12-27T21:34:10.365Z,1.10
2017-12-27T21:36:41.105Z,1.10
2017-12-27T21:40:04.640Z,0.90
2017-12-27T21:42:35.572Z,0.90
2017-12-27T21:45:06.851Z,0.90
2017-12-27T21:47:43.503Z,1.00
2017-12-27T21:50:14.156Z,1.00
2017-12-27T21:52:46.571Z,1.30
2017-12-27T21:55:17.236Z,1.30
2017-12-27T21:57:48.145Z,1.40
2017-12-27T22:02:27.303Z,1.40
2017-12-27T22:04:57.854Z,1.50
2017-12-27T22:07:30.060Z,1.60
2017-12-27T22:10:01.450Z,1.60
2017-12-27T22:12:32.026Z,1.50
2017-12-27T22:15:02.441Z,1.30
2017-12-27T22:17:33.254Z,1.40
2017-12-27T22:20:08.641Z,1.60
2017-12-27T22:22:40.064Z,1.60
2017-12-27T22:25:11.447Z,1.70
2017-12-27T22:27:43.001Z,1.70
2017-12-27T22:30:13.902Z,1.70
2017-12-27T22:32:44.513Z,1.80
2017-12-27T22:35:16.052Z,1.90
2017-12-27T22:37:47.098Z,1.90
2017-12-27T22:40:17.458Z,1.90
2017-12-27T22:42:48.678Z,2.10
2017-12-27T22:45:19.383Z,2.20
2017-12-27T22:47:50.282Z,2.10
2017-12-27T22:50:21.338Z,2.00
2017-12-27T22:52:51.815Z,2.00
2017-12-27T22:55:22.113Z,1.90
2017-12-27T22:57:52.832Z,1.90
2017-12-27T23:00:23.947Z,1.90
2017-12-27T23:02:54.637Z,1.90
2017-12-27T23:05:24.961Z,2.00
2017-12-27T23:07:56.232Z,1.90
2017-12-27T23:10:27.287Z,1.90
2017-12-27T23:12:57.690Z,1.90
2017-12-27T23:15:28.163Z,2.00
2017-12-27T23:17:59.799Z,2.20
2017-12-27T23:20:31.003Z,2.40
2017-12-27T23:23:01.855Z,2.40
2017-12-27T23:25:33.544Z,2.40
2017-12-27T23:28:04.233Z,2.40
2017-12-27T23:30:35.035Z,2.50
2017-12-27T23:33:05.873Z,2.60
2017-12-27T23:35:37.083Z,2.50
2017-12-27T23:38:07.559Z,2.50
2017-12-27T23:40:38.830Z,2.60
2017-12-27T23:43:10.051Z,2.60
2017-12-27T23:45:46.544Z,2.70
2017-12-27T23:48:56.103Z,2.70
2017-12-27T23:51:28.193Z,2.90
2017-12-27T23:54:02.296Z,2.90
2017-12-27T23:56:34.094Z,2.80
2017-12-27T23:59:05.130Z,2.80
